Time;durP1;ratioP1;P1;durP2;ratioP2;P2;SDS_P1;SDS_P2;PMS_P1;PMS_P2;Temp;Humidity;BMP_temperature;BMP_pressure;BME280_temperature;BME280_humidity;BME280_pressure;Samples;Min_cycle;Max_cycle;Signal;HPM_P1;HPM_P2
2023/06/03 07:01:18;;;;;;;0.55;0.55;;;21.50;99.90;24.10;101999.00;;;;6187237;23;20241;-70
2023/06/03 07:03:47;;;;;;;1.20;1.20;;;21.30;99.90;24.50;101958.00;;;;6160997;23;20611;-71
2023/06/03 07:06:13;;;;;;;2.92;1.73;;;21.50;99.90;24.70;101987.00;;;;6160969;23;20178;-70
2023/06/03 07:08:49;;;;;;;0.10;0.10;;;21.80;99.90;25.00;101991.00;;;;6161182;23;20193;-70
2023/06/03 07:11:14;;;;;;;0.50;0.40;;;21.90;99.90;26.50;101975.00;;;;6161295;23;20221;-71
2023/06/03 07:13:43;;;;;;;3.20;1.92;;;22.70;99.90;22.70;102028.00;;;;6160746;23;20568;-71
2023/06/03 07:16:32;;;;;;;1.58;0.98;;;21.60;99.90;23.70;102011.00;;;;6136620;23;20151;-70
2023/06/03 07:18:59;;;;;;;0.20;0.20;;;21.40;99.90;24.30;102006.00;;;;6163376;23;20236;-69
2023/06/03 07:21:27;;;;;;;2.88;0.77;;;21.50;99.90;22.60;102027.00;;;;6161422;23;20151;-69
2023/06/03 07:24:15;;;;;;;0.43;0.43;;;21.00;99.90;27.40;101967.00;;;;6160992;23;20159;-70
2023/06/03 07:27:22;;;;;;;0.10;0.10;;;22.20;99.90;25.50;101990.00;;;;6161366;23;20166;-70
2023/06/03 07:30:14;;;;;;;0.13;0.13;;;23.20;99.90;26.30;101987.00;;;;6136045;23;20171;-70
2023/06/03 07:33:02;;;;;;;0.28;0.28;;;22.90;99.90;24.50;101998.00;;;;6136551;23;20166;-69
2023/06/03 07:35:46;;;;;;;0.20;0.20;;;23.00;99.90;24.40;102011.00;;;;6135930;23;20156;-69
2023/06/03 07:38:37;;;;;;;1.20;0.98;;;22.60;99.90;22.90;102033.00;;;;6136272;23;20159;-69
2023/06/03 07:41:07;;;;;;;1.02;1.02;;;22.10;99.90;24.50;102015.00;;;;6160951;23;20155;-69
2023/06/03 07:43:39;;;;;;;2.17;1.38;;;21.90;99.90;23.90;102011.00;;;;6160789;23;20171;-69
2023/06/03 07:46:15;;;;;;;0.73;0.45;;;21.80;99.90;24.10;102008.00;;;;6136236;23;20576;-67
2023/06/03 07:49:05;;;;;;;0.13;0.13;;;21.80;99.90;24.90;101991.00;;;;6158894;23;20469;-67
2023/06/03 07:51:33;;;;;;;0.40;0.40;;;22.10;99.90;25.40;101937.00;;;;6160648;23;20167;-68
2023/06/03 07:54:03;;;;;;;0.20;0.20;;;22.70;99.90;25.90;101981.00;;;;6161014;23;20159;-68
2023/06/03 07:56:29;;;;;;;0.80;0.43;;;22.40;99.90;25.90;101980.00;;;;6135042;23;20586;-69
2023/06/03 07:58:55;;;;;;;0.30;0.30;;;22.90;99.90;25.60;101987.00;;;;6159748;23;20471;-69
2023/06/03 08:01:25;;;;;;;0.70;0.70;;;23.20;99.90;26.70;101993.00;;;;6130956;23;20159;-69
2023/06/03 08:03:54;;;;;;;0.40;0.40;;;23.50;99.90;25.30;102066.00;;;;6131096;23;20144;-69
2023/06/03 08:06:36;;;;;;;0.82;0.82;;;23.30;99.90;23.50;102121.00;;;;6130805;23;20164;-70
2023/06/03 08:09:30;;;;;;;1.65;1.33;;;22.30;99.90;25.60;102052.00;;;;6132320;23;20206;-69
2023/06/03 08:11:57;;;;;;;0.43;0.43;;;22.40;99.90;23.90;102087.00;;;;6127402;23;20144;-68
2023/06/03 08:14:25;;;;;;;0.10;0.10;;;22.00;99.90;27.10;102087.00;;;;6130959;23;20443;-69
2023/06/03 08:17:11;;;;;;;0.20;0.20;;;23.00;99.90;26.30;102076.00;;;;6130172;23;20154;-69
2023/06/03 08:19:45;;;;;;;2.83;0.68;;;23.20;99.90;25.20;102074.00;;;;6130151;23;20227;-69
2023/06/03 08:22:28;;;;;;;0.30;0.30;;;22.80;99.90;25.20;102085.00;;;;6130766;23;20175;-69
2023/06/03 08:25:23;;;;;;;0.80;0.57;;;22.70;99.90;25.40;102088.00;;;;6131066;23;20234;-69
2023/06/03 08:28:30;;;;;;;0.65;0.65;;;22.70;99.90;27.00;102013.00;;;;6130424;23;20175;-70
2023/06/03 08:30:56;;;;;;;0.10;0.10;;;23.50;99.90;26.70;102032.00;;;;6130004;23;20159;-70
2023/06/03 08:33:24;;;;;;;1.50;0.77;;;23.90;99.90;24.50;102065.00;;;;6130114;23;20461;-70
2023/06/03 08:35:53;;;;;;;0.45;0.45;;;23.30;99.90;27.30;102038.00;;;;6130641;23;20144;-70
2023/06/03 08:38:22;;;;;;;3.03;0.80;;;23.90;99.90;24.40;102040.00;;;;6106198;23;20277;-70
2023/06/03 08:40:59;;;;;;;1.00;0.82;;;22.60;99.90;24.20;102046.00;;;;6130561;23;20167;-69
2023/06/03 08:43:50;;;;;;;0.50;0.43;;;22.20;99.90;27.40;102019.00;;;;6105543;23;20739;-69
2023/06/03 08:46:44;;;;;;;0.75;0.75;;;23.40;99.90;25.90;102041.00;;;;6105354;23;20160;-68
2023/06/03 08:49:23;;;;;;;0.55;0.55;;;23.70;99.90;27.80;102012.00;;;;6156836;23;20190;-69
2023/06/03 08:52:10;;;;;;;5.00;1.23;;;24.50;99.90;26.70;102011.00;;;;6106397;23;20152;-68
2023/06/03 08:58:35;;;;;;;0.68;0.63;;;22.90;99.90;26.30;102007.00;;;;6134861;23;20175;-70
2023/06/03 09:01:27;;;;;;;0.22;0.22;;;23.10;99.90;26.70;102006.00;;;;6138109;23;20203;-70
2023/06/03 09:04:00;;;;;;;1.00;0.98;;;23.50;99.90;25.10;101967.00;;;;6130641;23;20581;-75
2023/06/03 09:06:31;;;;;;;0.38;0.38;;;23.40;99.90;24.30;102030.00;;;;6131317;23;20148;-70
2023/06/03 09:09:16;;;;;;;0.28;0.28;;;22.60;99.90;26.50;101962.00;;;;6130384;23;20156;-69
2023/06/03 09:11:45;;;;;;;1.67;0.73;;;23.10;99.90;26.90;101991.00;;;;6131742;23;20250;-68
2023/06/03 09:14:13;;;;;;;2.38;1.20;;;23.70;99.90;26.60;101995.00;;;;6130320;23;20168;-68
2023/06/03 09:16:39;;;;;;;0.10;0.10;;;23.90;99.90;27.60;101992.00;;;;6129801;23;20202;-69
2023/06/03 09:19:05;;;;;;;0.35;0.35;;;24.20;99.90;26.50;102014.00;;;;6155115;23;20163;-68
2023/06/03 09:21:38;;;;;;;0.32;0.32;;;24.30;99.90;26.40;101963.00;;;;6129633;23;20577;-69
2023/06/03 09:24:07;;;;;;;3.72;1.23;;;24.00;99.90;25.60;102012.00;;;;6130773;23;20139;-67
2023/06/03 09:26:42;;;;;;;1.95;0.75;;;23.50;99.90;24.60;102022.00;;;;6129073;23;20147;-69
2023/06/03 09:29:13;;;;;;;1.45;0.88;;;22.80;99.90;24.90;102012.00;;;;6130503;23;20576;-72
2023/06/03 09:31:40;;;;;;;1.13;0.85;;;22.60;99.90;24.80;102025.00;;;;6129074;23;20156;-67
2023/06/03 09:34:10;;;;;;;0.30;0.30;;;23.10;99.90;27.10;102002.00;;;;6155511;23;20152;-71
2023/06/03 09:36:48;;;;;;;2.05;0.93;;;23.90;99.90;24.20;102037.00;;;;6156067;23;20148;-69
2023/06/03 09:39:35;;;;;;;1.05;1.05;;;23.10;99.90;24.40;101972.00;;;;6155785;23;20253;-67
2023/06/03 09:42:22;;;;;;;0.10;0.10;;;22.50;99.90;26.50;102005.00;;;;6128180;23;20182;-69
2023/06/03 09:45:24;;;;;;;2.65;1.75;;;23.00;99.90;25.30;102022.00;;;;6129072;23;20167;-66
2023/06/03 09:47:59;;;;;;;0.20;0.20;;;23.40;99.90;26.00;102011.00;;;;6105508;23;20522;-65
2023/06/03 09:50:49;;;;;;;1.63;1.38;;;23.60;99.90;27.50;101942.00;;;;6130003;23;20701;-66
2023/06/03 09:53:46;;;;;;;2.75;1.67;;;24.50;99.90;24.10;102027.00;;;;6091711;23;20611;-65
2023/06/03 09:56:50;;;;;;;0.40;0.30;;;23.30;99.90;26.00;101996.00;;;;6105586;23;20160;-65
2023/06/03 09:59:43;;;;;;;0.10;0.10;;;23.20;99.90;28.60;101985.00;;;;6120520;23;20171;-66
2023/06/03 10:02:38;;;;;;;0.20;0.20;;;24.40;99.90;27.10;102000.00;;;;6098134;23;20187;-69
2023/06/03 10:06:00;;;;;;;0.10;0.10;;;25.30;99.90;27.30;101949.00;;;;6129060;23;20179;-72
2023/06/03 10:08:30;;;;;;;1.92;0.35;;;24.80;99.90;27.20;102001.00;;;;6133202;23;20912;-69
2023/06/03 10:11:00;;;;;;;0.10;0.10;;;24.70;99.90;26.10;102008.00;;;;6126951;23;20195;-69
2023/06/03 10:13:54;;;;;;;3.00;0.80;;;24.00;99.90;26.20;102002.00;;;;6080846;23;20171;-71
2023/06/03 10:17:03;;;;;;;0.10;0.10;;;23.90;99.90;28.50;101992.00;;;;6129894;23;20167;-71
2023/06/03 10:19:54;;;;;;;0.40;0.40;;;25.00;99.90;26.30;102000.00;;;;6105483;23;20163;-72
2023/06/03 10:33:21;;;;;;;0.32;0.32;;;24.60;98.20;27.50;101984.00;;;;5067300;28;20977;-70
2023/06/03 10:35:50;;;;;;;0.40;0.40;;;24.80;98.10;26.50;101998.00;;;;5056560;28;20225;-71
2023/06/03 10:38:25;;;;;;;0.40;0.40;;;24.90;97.70;24.60;102012.00;;;;5048855;28;20659;-71
2023/06/03 10:41:21;;;;;;;0.17;0.17;;;23.80;97.40;28.10;101971.00;;;;5036539;28;20632;-71
2023/06/03 10:44:25;;;;;;;0.10;0.10;;;24.00;99.20;28.20;101997.00;;;;5048414;28;20178;-71
2023/06/03 10:47:30;;;;;;;0.25;0.25;;;25.70;97.50;28.90;102025.00;;;;5049291;28;20194;-72
2023/06/03 10:50:26;;;;;;;0.22;0.22;;;25.70;97.40;29.40;102011.00;;;;5065433;28;20212;-71
2023/06/03 10:53:52;;;;;;;0.80;0.77;;;26.20;96.70;25.00;102032.00;;;;5078609;28;20689;-71
2023/06/03 10:56:54;;;;;;;0.60;0.60;;;24.50;95.60;25.80;102033.00;;;;5076628;28;20228;-72
2023/06/03 10:59:23;;;;;;;0.70;0.70;;;23.80;96.90;25.90;101982.00;;;;5045962;28;20552;-72
2023/06/03 11:05:23;;;;;;;1.65;1.55;;;24.20;97.30;28.60;102026.00;;;;5052526;28;20186;-71
2023/06/03 11:08:11;;;;;;;2.35;1.35;;;25.30;96.90;28.60;102013.00;;;;5039467;28;20201;-71
2023/06/03 11:10:39;;;;;;;0.38;0.30;;;25.80;96.00;29.00;101996.00;;;;5048277;28;20597;-72
2023/06/03 11:13:06;;;;;;;1.23;1.13;;;26.10;94.80;27.90;101986.00;;;;5048261;28;20206;-70
2023/06/03 11:16:03;;;;;;;0.98;0.88;;;25.80;93.60;26.40;102011.00;;;;5048426;28;20660;-68
2023/06/03 11:18:32;;;;;;;1.73;0.63;;;24.20;94.90;26.40;102018.00;;;;5059929;28;20198;-69
2023/06/03 11:20:58;;;;;;;0.30;0.30;;;23.90;95.00;27.10;102015.00;;;;5047524;28;20186;-68
2023/06/03 11:23:46;;;;;;;3.38;1.55;;;24.40;95.10;27.20;101972.00;;;;5047658;28;20193;-65
2023/06/03 11:26:35;;;;;;;0.80;0.77;;;25.50;93.80;26.60;102023.00;;;;5031088;28;20540;-65
2023/06/03 11:29:47;;;;;;;0.30;0.30;;;24.90;92.50;26.50;102009.00;;;;5038939;28;20236;-65
2023/06/03 11:32:29;;;;;;;1.38;0.35;;;24.50;92.30;26.70;101997.00;;;;5038794;28;20222;-65
2023/06/03 11:35:05;;;;;;;0.47;0.47;;;24.70;92.00;24.90;102027.00;;;;5046412;28;20265;-65
2023/06/03 11:38:00;;;;;;;0.32;0.30;;;23.80;91.90;27.00;101994.00;;;;5046455;28;20232;-66
2023/06/03 11:40:26;;;;;;;3.92;0.57;;;23.90;93.70;26.00;102009.00;;;;5023474;28;20281;-65
2023/06/03 11:43:00;;;;;;;0.60;0.60;;;24.10;92.50;26.30;101977.00;;;;5045590;28;20278;-65
2023/06/03 11:45:39;;;;;;;0.35;0.35;;;24.30;92.40;26.40;102017.00;;;;5035218;28;20190;-65
2023/06/03 11:48:11;;;;;;;1.27;0.95;;;24.30;92.30;26.50;102000.00;;;;5029838;28;20233;-64
2023/06/03 11:51:01;;;;;;;0.73;0.30;;;24.40;92.70;26.50;102004.00;;;;5030882;28;20686;-66
2023/06/03 11:54:16;;;;;;;4.18;0.52;;;24.10;92.80;28.10;101994.00;;;;5035667;28;20278;-64
2023/06/03 11:56:51;;;;;;;5.30;0.85;;;24.60;93.10;26.60;102013.00;;;;5035661;28;20233;-64
2023/06/03 11:59:42;;;;;;;0.22;0.22;;;24.40;92.90;28.00;101944.00;;;;5034578;28;20198;-65
2023/06/03 12:02:37;;;;;;;0.63;0.63;;;24.40;92.30;26.40;102001.00;;;;5033503;28;20227;-64
2023/06/03 12:05:07;;;;;;;0.20;0.20;;;24.30;92.30;25.70;102015.00;;;;5018978;28;20202;-64
2023/06/03 12:07:33;;;;;;;0.10;0.10;;;23.70;92.70;27.50;101998.00;;;;5033171;28;20190;-64
2023/06/03 12:10:00;;;;;;;0.45;0.45;;;24.00;92.30;25.40;102018.00;;;;5033030;28;20217;-64
2023/06/03 12:12:28;;;;;;;0.10;0.10;;;23.70;91.40;26.70;101988.00;;;;5034220;28;20211;-64
2023/06/03 12:15:11;;;;;;;0.28;0.28;;;23.70;92.20;25.50;101962.00;;;;5034088;28;20238;-64
2023/06/03 12:17:40;;;;;;;2.20;2.10;;;23.70;91.90;25.70;102011.00;;;;5019263;28;20182;-63
2023/06/03 12:20:11;;;;;;;0.30;0.30;;;23.50;92.00;27.40;102005.00;;;;5033808;28;20187;-64
2023/06/03 12:22:39;;;;;;;0.60;0.60;;;23.90;92.80;26.20;102008.00;;;;5016868;28;20178;-64
2023/06/03 12:25:36;;;;;;;0.40;0.40;;;24.00;91.80;25.60;102000.00;;;;5032919;28;20650;-65
2023/06/03 12:28:31;;;;;;;0.30;0.30;;;23.50;91.90;26.80;102016.00;;;;5021873;28;20183;-65
2023/06/03 12:31:20;;;;;;;0.20;0.20;;;23.80;92.40;27.30;102009.00;;;;5031056;28;20197;-65
2023/06/03 12:33:54;;;;;;;0.20;0.20;;;24.00;91.90;27.20;102005.00;;;;5033863;28;20187;-65
2023/06/03 12:36:48;;;;;;;0.13;0.13;;;24.00;92.20;27.40;101968.00;;;;5034864;28;20182;-66
2023/06/03 12:39:19;;;;;;;0.30;0.30;;;23.80;92.50;26.50;102010.00;;;;5019032;28;20183;-65
2023/06/03 12:41:50;;;;;;;0.47;0.38;;;23.90;91.90;26.30;101981.00;;;;5044577;28;20233;-67
2023/06/03 12:44:19;;;;;;;1.13;0.68;;;23.60;91.30;26.30;101989.00;;;;5033842;28;20717;-66
2023/06/03 12:47:03;;;;;;;0.65;0.50;;;23.50;90.90;25.40;102008.00;;;;5033357;28;20182;-66
2023/06/03 12:49:32;;;;;;;0.35;0.35;;;23.30;90.50;25.80;101962.00;;;;5032811;28;20191;-66
2023/06/03 12:52:18;;;;;;;0.20;0.20;;;23.30;90.70;26.30;101951.00;;;;5032832;28;20187;-66
2023/06/03 12:54:51;;;;;;;0.20;0.20;;;23.30;91.00;27.10;101992.00;;;;5033034;28;20244;-66
2023/06/03 12:57:21;;;;;;;0.80;0.52;;;23.70;92.00;27.60;101989.00;;;;5033791;28;20653;-66
2023/06/03 13:00:15;;;;;;;0.15;0.15;;;23.90;90.70;27.10;101982.00;;;;5034530;28;20190;-66
2023/06/03 13:02:43;;;;;;;0.40;0.40;;;23.90;90.70;25.70;101979.00;;;;5033934;28;20833;-67
2023/06/03 13:05:11;;;;;;;0.28;0.28;;;23.60;90.60;26.00;101987.00;;;;5032294;28;20226;-67
2023/06/03 13:07:44;;;;;;;2.42;2.33;;;23.50;91.00;26.70;101975.00;;;;5031902;28;20194;-67
2023/06/03 13:10:15;;;;;;;0.20;0.20;;;23.40;90.00;26.50;101958.00;;;;5028941;28;20191;-67
2023/06/03 13:13:04;;;;;;;0.65;0.65;;;23.60;89.50;26.40;101929.00;;;;5063905;28;20210;-66
2023/06/03 13:16:07;;;;;;;0.52;0.47;;;23.60;89.30;25.80;101981.00;;;;5033482;28;20190;-67
2023/06/03 13:19:08;;;;;;;0.47;0.47;;;23.50;89.20;25.60;101988.00;;;;5027837;28;20181;-67
2023/06/03 13:22:00;;;;;;;0.10;0.10;;;23.50;89.50;26.60;101973.00;;;;5017095;28;20179;-69
2023/06/03 13:24:53;;;;;;;0.35;0.35;;;23.30;87.30;26.20;101974.00;;;;5029675;28;20198;-69
2023/06/03 13:27:28;;;;;;;11.25;0.35;;;23.10;87.60;26.40;101964.00;;;;5020040;28;20195;-69
2023/06/03 13:30:11;;;;;;;0.13;0.13;;;23.20;87.70;26.20;101921.00;;;;5032525;28;20182;-67
2023/06/03 13:32:44;;;;;;;4.97;0.93;;;23.40;86.60;25.20;101975.00;;;;5026024;28;20233;-66
2023/06/03 13:35:15;;;;;;;0.17;0.17;;;23.20;84.70;26.40;101966.00;;;;5033851;28;20183;-68
2023/06/03 13:37:55;;;;;;;0.73;0.73;;;23.30;87.90;26.00;101970.00;;;;5032706;28;20183;-66
2023/06/03 13:40:31;;;;;;;0.10;0.10;;;23.40;84.20;25.90;101917.00;;;;5032459;28;20183;-65
2023/06/03 13:43:03;;;;;;;0.60;0.57;;;23.30;87.00;25.90;101961.00;;;;5020747;28;20227;-65
2023/06/03 13:45:39;;;;;;;0.75;0.50;;;23.30;87.00;25.50;101961.00;;;;5033622;28;20194;-68
2023/06/03 13:48:05;;;;;;;0.40;0.40;;;23.30;86.90;26.30;101949.00;;;;5002286;28;20175;-68
2023/06/03 13:50:59;;;;;;;1.75;0.65;;;23.30;88.70;25.30;101961.00;;;;5032481;28;20254;-68
2023/06/03 13:53:46;;;;;;;0.10;0.10;;;23.20;87.60;26.10;101957.00;;;;5031966;28;20175;-68
2023/06/03 13:56:34;;;;;;;0.43;0.43;;;23.10;89.10;25.80;101958.00;;;;5022942;28;20195;-69
2023/06/03 13:59:24;;;;;;;2.15;0.50;;;23.10;88.80;25.90;101945.00;;;;5030285;28;20186;-69
2023/06/03 14:02:04;;;;;;;0.40;0.40;;;23.40;87.60;25.80;101934.00;;;;5029497;28;20695;-65
2023/06/03 14:04:48;;;;;;;0.20;0.20;;;23.30;84.30;25.50;101938.00;;;;5034881;28;20305;-68
2023/06/03 14:07:36;;;;;;;0.20;0.20;;;23.10;83.60;25.10;101899.00;;;;5028260;28;20265;-71
2023/06/03 14:10:05;;;;;;;1.00;1.00;;;23.00;84.50;25.40;101936.00;;;;5019836;28;20226;-63
2023/06/03 14:12:31;;;;;;;0.20;0.20;;;23.00;84.30;25.80;101931.00;;;;5031041;28;20210;-63
2023/06/03 14:15:30;;;;;;;0.28;0.28;;;23.20;83.80;25.30;101894.00;;;;5039976;28;20241;-62
2023/06/03 14:18:05;;;;;;;1.50;0.95;;;23.20;81.70;25.90;101933.00;;;;5031851;28;20179;-63
2023/06/03 14:20:35;;;;;;;0.10;0.10;;;23.00;83.30;26.80;101895.00;;;;5039979;28;20278;-63
2023/06/03 14:23:05;;;;;;;0.10;0.10;;;23.20;85.50;26.50;101912.00;;;;5015369;28;20183;-63
2023/06/03 14:25:40;;;;;;;0.52;0.52;;;23.20;84.30;26.10;101922.00;;;;5039402;28;20206;-63
2023/06/03 14:28:17;;;;;;;0.20;0.20;;;23.30;83.10;25.90;101936.00;;;;5032660;28;20182;-64
2023/06/03 14:30:46;;;;;;;0.10;0.10;;;23.30;82.20;26.30;101925.00;;;;5037155;28;20192;-64
2023/06/03 14:33:40;;;;;;;0.10;0.10;;;23.20;84.50;26.50;101922.00;;;;5032246;28;20225;-64
2023/06/03 14:36:33;;;;;;;0.75;0.75;;;23.40;82.20;25.90;101954.00;;;;5029045;28;20195;-64
2023/06/03 14:39:18;;;;;;;0.70;0.30;;;23.50;81.30;25.90;101925.00;;;;5032479;28;20187;-64
2023/06/03 14:42:10;;;;;;;1.63;0.65;;;23.30;80.30;25.90;101931.00;;;;4977264;28;20291;-64
2023/06/03 14:44:59;;;;;;;0.20;0.20;;;23.20;84.40;26.20;101931.00;;;;5031884;28;20194;-64
2023/06/03 14:47:45;;;;;;;0.22;0.13;;;23.30;81.40;26.30;101912.00;;;;5031886;28;20214;-64
2023/06/03 14:50:13;;;;;;;0.10;0.10;;;23.50;80.10;27.10;101915.00;;;;5038290;28;20190;-71
2023/06/03 14:53:05;;;;;;;0.30;0.30;;;23.50;85.00;25.90;101932.00;;;;5030102;28;20290;-72
2023/06/03 14:55:33;;;;;;;0.40;0.40;;;23.30;80.50;26.80;101921.00;;;;5016392;28;20671;-71
2023/06/03 14:58:17;;;;;;;0.10;0.10;;;23.50;81.10;26.30;101922.00;;;;5062869;28;20193;-72
2023/06/03 15:01:04;;;;;;;0.38;0.38;;;23.50;81.90;25.70;101921.00;;;;5031405;28;20178;-71
2023/06/03 15:03:39;;;;;;;0.20;0.20;;;23.30;81.40;26.30;101919.00;;;;5030940;28;20198;-71
2023/06/03 15:06:45;;;;;;;0.10;0.10;;;23.40;81.20;27.40;101892.00;;;;5019182;28;20191;-68
2023/06/03 15:09:34;;;;;;;0.30;0.20;;;23.70;82.80;25.50;101889.00;;;;5030784;28;20194;-70
2023/06/03 15:12:10;;;;;;;0.30;0.30;;;23.30;79.70;26.10;101921.00;;;;5011835;28;20223;-73
2023/06/03 15:14:36;;;;;;;0.57;0.35;;;23.20;80.90;25.80;101921.00;;;;5027810;28;20187;-70
2023/06/03 15:17:27;;;;;;;3.83;0.40;;;23.20;80.50;26.60;101901.00;;;;5028366;28;20222;-71
2023/06/03 15:20:30;;;;;;;0.40;0.40;;;23.50;79.90;26.80;101908.00;;;;5038172;28;20196;-69
2023/06/03 15:22:56;;;;;;;0.77;0.57;;;23.80;80.00;25.70;101923.00;;;;5025394;28;20202;-69
2023/06/03 15:25:22;;;;;;;1.90;0.40;;;23.40;79.70;25.50;101921.00;;;;5033295;28;20186;-73
2023/06/03 15:28:11;;;;;;;0.20;0.20;;;23.30;79.10;26.30;101924.00;;;;5031392;28;20204;-72
2023/06/03 15:30:37;;;;;;;2.78;2.58;;;23.40;79.80;26.20;101912.00;;;;5022599;28;20549;-67
2023/06/03 15:33:16;;;;;;;0.30;0.30;;;23.30;79.10;25.40;101908.00;;;;5017876;28;20214;-68
2023/06/03 15:35:42;;;;;;;0.75;0.43;;;22.80;79.80;25.60;101912.00;;;;5018578;28;20198;-72
2023/06/03 15:38:08;;;;;;;0.40;0.40;;;23.00;79.20;25.50;101917.00;;;;5034840;28;20552;-69
2023/06/03 15:40:46;;;;;;;3.88;1.08;;;23.10;79.70;24.90;101903.00;;;;5034891;28;20191;-69
2023/06/03 15:43:44;;;;;;;0.20;0.20;;;23.00;80.00;25.60;101914.00;;;;5031225;28;20195;-68
2023/06/03 15:46:30;;;;;;;0.20;0.20;;;23.10;80.00;25.70;101923.00;;;;5046898;28;20194;-71
2023/06/03 15:48:58;;;;;;;0.20;0.20;;;23.20;80.50;26.60;101894.00;;;;5035860;28;20196;-69
2023/06/03 15:51:25;;;;;;;0.22;0.22;;;23.20;79.90;26.30;101903.00;;;;5034921;28;20217;-70
2023/06/03 15:53:59;;;;;;;0.65;0.40;;;23.30;79.60;25.90;101895.00;;;;5034302;28;20632;-70
2023/06/03 15:56:30;;;;;;;0.22;0.22;;;23.40;79.20;25.80;101900.00;;;;5026041;28;20204;-70
2023/06/03 15:58:56;;;;;;;0.25;0.25;;;23.30;78.50;26.00;101885.00;;;;5034574;28;20183;-70
2023/06/03 16:01:25;;;;;;;0.30;0.30;;;23.30;78.80;25.40;101894.00;;;;5034016;28;20654;-68
2023/06/03 16:03:51;;;;;;;0.32;0.32;;;23.10;79.20;25.60;101839.00;;;;5034434;28;20187;-71
2023/06/03 16:06:22;;;;;;;1.13;0.70;;;23.00;78.40;25.60;101899.00;;;;5017152;28;20649;-69
2023/06/03 16:08:54;;;;;;;0.20;0.20;;;23.10;79.10;25.40;101889.00;;;;5030966;28;20653;-70
2023/06/03 16:11:30;;;;;;;1.23;0.60;;;22.90;79.90;25.40;101889.00;;;;5043031;28;20713;-70
2023/06/03 16:13:59;;;;;;;0.10;0.10;;;23.00;80.10;26.20;101896.00;;;;5017574;28;20214;-71
2023/06/03 16:16:43;;;;;;;0.10;0.10;;;23.10;81.10;26.30;101890.00;;;;5034118;28;20183;-71
2023/06/03 16:19:15;;;;;;;0.25;0.25;;;23.40;80.30;25.70;101886.00;;;;5024477;28;20187;-70
2023/06/03 16:21:41;;;;;;;0.30;0.30;;;23.30;79.20;25.30;101895.00;;;;5030799;28;20190;-72
2023/06/03 16:24:18;;;;;;;0.55;0.52;;;23.00;80.60;25.40;101893.00;;;;5048310;28;20187;-70
2023/06/03 16:26:47;;;;;;;0.38;0.30;;;23.00;80.60;25.50;101890.00;;;;5030250;28;20182;-70
2023/06/03 16:29:13;;;;;;;0.28;0.17;;;23.00;81.10;26.00;101888.00;;;;5033532;28;20179;-70
2023/06/03 16:31:46;;;;;;;0.28;0.28;;;23.10;80.70;26.00;101886.00;;;;5033034;28;20222;-70
2023/06/03 16:34:25;;;;;;;1.77;1.08;;;23.20;80.10;25.20;101888.00;;;;5033741;28;20710;-72
2023/06/03 16:37:10;;;;;;;0.50;0.50;;;22.80;80.50;25.50;101887.00;;;;5023775;28;20229;-69
2023/06/03 16:39:48;;;;;;;0.68;0.68;;;22.90;80.50;26.00;101865.00;;;;5009440;28;20190;-68
2023/06/03 16:42:47;;;;;;;0.10;0.10;;;23.00;80.00;25.70;101854.00;;;;5018227;28;20610;-68
2023/06/03 16:45:33;;;;;;;3.10;1.02;;;23.00;80.20;25.70;101876.00;;;;5024975;28;20186;-68
2023/06/03 16:48:02;;;;;;;0.68;0.68;;;23.00;80.80;25.70;101876.00;;;;5033325;28;20649;-68
2023/06/03 16:50:48;;;;;;;0.63;0.57;;;23.10;81.00;25.30;101894.00;;;;5032690;28;20198;-68
2023/06/03 16:53:19;;;;;;;2.92;0.40;;;22.90;81.20;25.20;101888.00;;;;5034794;28;20681;-68
2023/06/03 16:55:54;;;;;;;0.30;0.30;;;22.70;80.70;25.00;101863.00;;;;5032843;28;20185;-69
2023/06/03 16:58:41;;;;;;;0.30;0.30;;;22.60;81.40;26.40;101879.00;;;;5031498;28;20186;-67
2023/06/03 17:01:51;;;;;;;0.20;0.20;;;22.90;82.80;26.30;101878.00;;;;5033017;28;20253;-68
2023/06/03 17:04:34;;;;;;;5.68;0.95;;;23.10;81.70;25.30;101880.00;;;;5009422;28;20236;-68
2023/06/03 17:07:20;;;;;;;1.15;0.75;;;23.00;82.20;25.40;101871.00;;;;5016138;28;20187;-68
2023/06/03 17:10:09;;;;;;;0.10;0.10;;;22.70;82.30;25.90;101886.00;;;;5029409;28;20418;-68
2023/06/03 17:13:10;;;;;;;0.20;0.10;;;22.90;82.80;25.30;101872.00;;;;5027199;28;20681;-67
2023/06/03 17:15:54;;;;;;;0.63;0.63;;;22.70;81.80;25.80;101882.00;;;;5032987;28;20186;-68
2023/06/03 17:18:55;;;;;;;0.20;0.20;;;22.80;81.10;25.90;101885.00;;;;5021209;28;20244;-68
2023/06/03 17:21:46;;;;;;;0.30;0.30;;;22.80;82.50;25.30;101895.00;;;;5021037;28;20194;-68
2023/06/03 17:24:31;;;;;;;0.70;0.63;;;22.70;82.00;24.70;101852.00;;;;5029545;28;20248;-68
2023/06/03 17:27:17;;;;;;;0.13;0.13;;;22.50;82.00;25.20;101869.00;;;;5012515;28;20318;-68
2023/06/03 17:29:48;;;;;;;0.68;0.47;;;22.50;83.20;25.10;101865.00;;;;5031487;28;20217;-68
2023/06/03 17:32:18;;;;;;;0.30;0.30;;;22.50;82.80;25.40;101879.00;;;;5032544;28;20310;-68
2023/06/03 17:35:16;;;;;;;0.70;0.70;;;22.60;82.70;24.60;101886.00;;;;5032563;28;20191;-68
2023/06/03 17:38:55;;;;;;;0.20;0.20;;;22.40;82.40;24.90;101893.00;;;;5020506;28;20238;-68
2023/06/03 17:41:56;;;;;;;0.75;0.43;;;22.40;82.80;25.40;101885.00;;;;5034627;28;20174;-67
2023/06/03 17:45:01;;;;;;;0.70;0.13;;;22.50;83.30;25.40;101889.00;;;;5016712;28;20245;-68
2023/06/03 17:48:17;;;;;;;0.35;0.35;;;22.60;82.00;25.10;101890.00;;;;5029955;28;20187;-68
2023/06/03 17:51:20;;;;;;;0.90;0.80;;;22.40;82.10;24.30;101903.00;;;;5031412;28;20254;-68
2023/06/03 17:53:48;;;;;;;0.40;0.40;;;22.20;82.10;24.60;101884.00;;;;5027821;28;20637;-70
2023/06/03 17:56:35;;;;;;;1.02;0.60;;;22.10;82.40;24.70;101899.00;;;;5012954;28;20191;-68
2023/06/03 17:59:20;;;;;;;0.20;0.20;;;22.20;82.00;25.10;101845.00;;;;5026291;28;20266;-68
2023/06/03 18:02:37;;;;;;;0.30;0.30;;;22.10;82.60;24.40;101897.00;;;;5032070;28;20187;-68
2023/06/03 18:05:29;;;;;;;0.57;0.30;;;22.20;82.00;24.60;101891.00;;;;5031443;28;20182;-68
2023/06/03 18:08:18;;;;;;;0.75;0.25;;;22.00;82.40;24.90;101896.00;;;;5036820;28;20186;-68
2023/06/03 18:11:06;;;;;;;0.10;0.10;;;22.10;81.40;24.60;101901.00;;;;5039794;28;20225;-69
2023/06/03 18:13:49;;;;;;;1.08;0.32;;;22.00;81.30;24.60;101890.00;;;;5042284;28;20206;-68
2023/06/03 18:16:18;;;;;;;0.68;0.68;;;21.90;81.40;24.60;101897.00;;;;5023313;28;20195;-68
2023/06/03 18:19:22;;;;;;;0.80;0.70;;;21.90;81.90;24.90;101904.00;;;;5041042;28;20690;-68
2023/06/03 18:22:17;;;;;;;0.20;0.20;;;21.90;82.10;24.70;101905.00;;;;5029321;28;20633;-68
2023/06/03 18:24:43;;;;;;;0.17;0.17;;;21.80;82.90;24.90;101911.00;;;;5041289;28;20190;-68
2023/06/03 18:27:10;;;;;;;0.15;0.10;;;21.90;83.60;24.30;101908.00;;;;5040683;28;20212;-68
2023/06/03 18:29:56;;;;;;;0.20;0.20;;;21.80;84.60;24.60;101913.00;;;;5022837;28;20213;-68
2023/06/03 18:32:30;;;;;;;0.20;0.20;;;21.70;84.80;24.50;101886.00;;;;5038527;28;20221;-68
2023/06/03 18:35:00;;;;;;;0.80;0.40;;;21.70;84.70;24.10;101909.00;;;;5040855;28;20633;-68
2023/06/03 18:37:34;;;;;;;0.10;0.10;;;21.60;83.60;24.10;101908.00;;;;5040109;28;20201;-68
2023/06/03 18:40:03;;;;;;;0.10;0.10;;;21.60;83.90;24.20;101927.00;;;;5039737;28;20190;-67
2023/06/03 18:42:55;;;;;;;0.10;0.10;;;21.60;84.10;24.00;101929.00;;;;5020239;28;20238;-67
2023/06/03 18:45:29;;;;;;;0.10;0.10;;;21.50;84.50;24.50;101919.00;;;;5031182;28;20195;-67
2023/06/03 18:48:02;;;;;;;0.60;0.32;;;21.50;84.80;23.80;101924.00;;;;5006935;28;20175;-67
2023/06/03 18:50:34;;;;;;;1.13;0.68;;;21.40;84.20;23.80;101926.00;;;;5031735;28;20194;-67
2023/06/03 18:53:30;;;;;;;0.38;0.35;;;21.30;84.00;23.70;101918.00;;;;5028477;28;20207;-67
2023/06/03 18:56:02;;;;;;;0.75;0.40;;;21.20;83.90;23.50;101933.00;;;;5036813;28;20175;-67
2023/06/03 18:58:36;;;;;;;0.10;0.10;;;21.10;83.70;24.00;101915.00;;;;5036459;28;20689;-67
2023/06/03 19:01:11;;;;;;;0.35;0.28;;;21.10;84.30;23.80;101886.00;;;;5036745;28;20197;-66
2023/06/03 19:03:56;;;;;;;0.45;0.45;;;21.20;84.30;24.60;101918.00;;;;5033493;28;20572;-67
2023/06/03 19:06:28;;;;;;;0.10;0.10;;;21.30;84.30;23.80;101932.00;;;;5035549;28;20186;-67